createdAt,value
2019-05-19T00:01:20.953Z,12.46
2019-05-19T00:03:53.434Z,12.50
2019-05-19T00:06:24.743Z,12.41
2019-05-19T00:08:56.555Z,12.45
2019-05-19T00:11:28.196Z,12.41
2019-05-19T00:14:00.360Z,12.46
2019-05-19T00:16:31.637Z,12.42
2019-05-19T00:19:02.869Z,12.33
2019-05-19T00:21:34.187Z,12.23
2019-05-19T00:24:06.136Z,12.29
2019-05-19T00:26:38.930Z,12.39
2019-05-19T00:29:10.443Z,12.40
2019-05-19T00:31:44.742Z,12.37
2019-05-19T00:34:19.280Z,12.41
2019-05-19T00:36:54.198Z,12.52
2019-05-19T00:39:25.991Z,12.55
2019-05-19T00:41:57.815Z,12.42
2019-05-19T00:44:29.045Z,12.41
2019-05-19T00:47:00.522Z,12.42
2019-05-19T00:49:40.911Z,12.43
2019-05-19T00:52:05.770Z,12.39
2019-05-19T00:54:37.640Z,12.39
2019-05-19T00:57:09.528Z,12.36
2019-05-19T00:59:42.118Z,12.35
2019-05-19T01:02:14.214Z,12.47
2019-05-19T01:04:46.233Z,12.56
2019-05-19T01:07:21.333Z,12.60
2019-05-19T01:09:54.266Z,12.65
2019-05-19T01:12:26.303Z,12.65
2019-05-19T01:14:58.269Z,12.54
2019-05-19T01:17:35.825Z,12.40
2019-05-19T01:20:07.746Z,12.40
2019-05-19T01:22:39.020Z,12.51
2019-05-19T01:25:10.755Z,12.55
2019-05-19T01:27:42.478Z,12.59
2019-05-19T01:30:14.577Z,12.57
2019-05-19T01:32:45.918Z,12.61
2019-05-19T01:35:17.609Z,12.58
2019-05-19T01:37:49.962Z,12.60
2019-05-19T01:40:21.524Z,12.71
2019-05-19T01:42:53.189Z,12.63
2019-05-19T01:45:25.608Z,12.53
2019-05-19T01:47:56.952Z,12.56
2019-05-19T01:50:30.773Z,12.59
2019-05-19T01:53:02.061Z,12.53
2019-05-19T01:55:34.156Z,12.46
2019-05-19T01:58:05.497Z,12.55
2019-05-19T02:00:36.834Z,12.55
2019-05-19T02:03:08.173Z,12.46
2019-05-19T02:05:39.466Z,12.47
2019-05-19T02:08:10.690Z,12.67
2019-05-19T02:10:42.058Z,12.46
2019-05-19T02:13:13.378Z,12.39
2019-05-19T02:15:44.698Z,12.45
2019-05-19T02:18:15.896Z,12.32
2019-05-19T02:20:47.231Z,12.34
2019-05-19T02:23:18.919Z,12.29
2019-05-19T02:25:50.522Z,12.29
2019-05-19T02:28:22.849Z,12.39
2019-05-19T02:30:54.517Z,12.51
2019-05-19T02:33:25.829Z,12.45
2019-05-19T02:35:57.044Z,12.37
2019-05-19T02:38:28.331Z,12.56
2019-05-19T02:41:00.905Z,12.61
2019-05-19T02:43:33.524Z,12.46
2019-05-19T02:46:06.428Z,12.41
2019-05-19T02:48:39.311Z,12.34
2019-05-19T02:51:12.454Z,12.35
2019-05-19T02:53:45.640Z,12.33
2019-05-19T02:56:17.232Z,12.30
2019-05-19T02:58:49.127Z,12.24
2019-05-19T03:01:20.664Z,12.17
2019-05-19T03:03:51.850Z,12.12
2019-05-19T03:06:23.711Z,12.14
2019-05-19T03:08:54.996Z,12.16
2019-05-19T03:11:26.622Z,12.22
2019-05-19T03:13:58.962Z,12.21
2019-05-19T03:16:30.308Z,12.25
2019-05-19T03:19:01.586Z,12.33
2019-05-19T03:21:32.862Z,12.37
2019-05-19T03:24:05.707Z,12.42
2019-05-19T03:26:37.219Z,12.25
2019-05-19T03:29:10.000Z,12.22
2019-05-19T03:31:48.009Z,12.31
2019-05-19T03:34:19.748Z,12.26
2019-05-19T03:36:51.599Z,12.20
2019-05-19T03:39:24.080Z,12.34
2019-05-19T03:41:55.354Z,12.51
2019-05-19T03:44:27.129Z,12.58
2019-05-19T03:46:58.663Z,12.62
2019-05-19T03:49:29.916Z,12.83
2019-05-19T03:52:01.388Z,12.90
2019-05-19T03:54:32.953Z,12.88
2019-05-19T03:57:04.210Z,12.77
2019-05-19T03:59:35.505Z,12.83
2019-05-19T04:02:06.727Z,12.77
2019-05-19T04:04:38.225Z,12.67
2019-05-19T04:07:12.090Z,12.62
2019-05-19T04:09:43.874Z,12.80
2019-05-19T04:12:15.138Z,12.86
2019-05-19T04:14:47.538Z,12.67
2019-05-19T04:17:19.185Z,12.49
2019-05-19T04:19:50.848Z,12.30
2019-05-19T04:22:22.079Z,12.36
2019-05-19T04:24:56.125Z,12.35
2019-05-19T04:27:27.384Z,12.25
2019-05-19T04:30:00.264Z,12.43
2019-05-19T04:32:31.587Z,12.46
2019-05-19T04:35:02.872Z,12.63
2019-05-19T04:37:34.183Z,12.52
2019-05-19T04:40:06.895Z,12.71
2019-05-19T04:42:38.274Z,12.87
2019-05-19T04:45:09.667Z,12.94
2019-05-19T04:47:41.003Z,12.89
2019-05-19T04:50:12.297Z,12.87
2019-05-19T04:52:44.531Z,12.90
2019-05-19T04:55:16.929Z,12.64
2019-05-19T04:57:49.291Z,12.70
2019-05-19T05:00:20.686Z,12.90
2019-05-19T05:02:52.302Z,12.94
2019-05-19T05:05:23.643Z,12.98
2019-05-19T05:07:55.586Z,13.02
2019-05-19T05:10:27.096Z,13.08
2019-05-19T05:12:59.958Z,13.00
2019-05-19T05:15:31.473Z,12.91
2019-05-19T05:18:02.773Z,13.06
2019-05-19T05:20:34.127Z,12.90
2019-05-19T05:23:05.443Z,12.71
2019-05-19T05:25:36.723Z,12.92
2019-05-19T05:28:08.217Z,12.88
2019-05-19T05:30:39.345Z,13.10
2019-05-19T05:33:10.592Z,13.22
2019-05-19T05:35:41.843Z,13.30
2019-05-19T05:38:13.361Z,13.28
2019-05-19T05:40:44.652Z,13.12
2019-05-19T05:43:15.853Z,13.37
2019-05-19T05:45:47.202Z,13.32
2019-05-19T05:51:07.598Z,13.19
2019-05-19T05:53:38.810Z,12.95
2019-05-19T05:56:10.158Z,12.87
2019-05-19T05:58:41.939Z,12.87
2019-05-19T06:01:13.679Z,12.73
2019-05-19T06:03:44.986Z,12.69
2019-05-19T06:06:17.837Z,12.59
2019-05-19T06:08:49.135Z,12.54
2019-05-19T06:11:21.385Z,12.37
2019-05-19T06:13:52.737Z,12.41
2019-05-19T06:16:24.110Z,12.46
2019-05-19T06:18:56.857Z,12.48
2019-05-19T06:21:28.336Z,12.57
2019-05-19T06:23:59.639Z,12.55
2019-05-19T06:26:31.794Z,12.75
2019-05-19T06:29:03.179Z,12.93
2019-05-19T06:31:34.428Z,13.07
2019-05-19T06:34:06.768Z,12.96
2019-05-19T06:36:38.116Z,13.00
2019-05-19T06:39:09.468Z,13.01
2019-05-19T06:41:40.841Z,12.98
2019-05-19T06:44:11.957Z,13.14
2019-05-19T06:46:43.343Z,13.21
2019-05-19T06:49:14.722Z,13.36
2019-05-19T06:51:46.364Z,13.31
2019-05-19T06:54:19.709Z,13.20
2019-05-19T06:56:51.018Z,13.19
2019-05-19T06:59:22.365Z,13.34
2019-05-19T07:01:53.742Z,13.22
2019-05-19T07:04:25.078Z,13.22
2019-05-19T07:06:56.496Z,13.48
2019-05-19T07:09:29.280Z,13.67
2019-05-19T07:12:00.645Z,13.65
2019-05-19T07:14:32.079Z,13.62
2019-05-19T07:17:03.374Z,13.73
2019-05-19T07:19:34.763Z,13.87
2019-05-19T07:22:06.003Z,13.96
2019-05-19T07:24:37.173Z,14.05
2019-05-19T07:27:08.459Z,14.04
2019-05-19T07:29:40.275Z,13.92
2019-05-19T07:34:25.740Z,13.77
2019-05-19T07:36:57.179Z,13.75
2019-05-19T07:39:28.580Z,13.82
2019-05-19T07:41:59.906Z,13.79
2019-05-19T07:44:31.327Z,13.96
2019-05-19T07:47:02.695Z,14.03
2019-05-19T07:49:35.151Z,13.74
2019-05-19T07:52:06.431Z,13.79
2019-05-19T07:54:37.983Z,13.66
2019-05-19T07:57:10.456Z,13.54
2019-05-19T07:59:41.999Z,13.71
2019-05-19T08:02:13.352Z,13.81
2019-05-19T08:04:44.498Z,13.87
2019-05-19T08:07:15.777Z,13.87
2019-05-19T08:09:49.644Z,13.84
2019-05-19T08:12:21.600Z,13.86
2019-05-19T08:14:53.044Z,13.96
2019-05-19T08:17:26.027Z,13.96
2019-05-19T08:19:57.552Z,13.86
2019-05-19T08:22:30.177Z,13.85
2019-05-19T08:25:01.425Z,13.85
2019-05-19T08:27:34.826Z,13.76
2019-05-19T08:30:08.709Z,13.89
2019-05-19T08:32:41.612Z,13.77
2019-05-19T08:35:14.749Z,13.85
2019-05-19T08:37:46.127Z,13.93
2019-05-19T08:40:17.700Z,13.58
2019-05-19T08:42:49.273Z,13.80
2019-05-19T08:45:20.848Z,13.88
2019-05-19T08:47:52.159Z,14.02
2019-05-19T08:50:23.400Z,13.96
2019-05-19T08:52:54.998Z,14.15
2019-05-19T08:55:26.355Z,14.37
2019-05-19T08:57:57.741Z,14.30
2019-05-19T09:00:28.869Z,14.51
2019-05-19T09:03:00.439Z,14.27
2019-05-19T09:05:31.945Z,14.11
2019-05-19T09:08:03.505Z,14.19
2019-05-19T09:10:34.943Z,14.18
2019-05-19T09:13:13.385Z,14.16
2019-05-19T09:15:44.696Z,14.30
2019-05-19T09:18:19.149Z,14.35
2019-05-19T09:20:50.356Z,14.41
2019-05-19T09:23:22.323Z,14.53
2019-05-19T09:25:53.571Z,14.71
2019-05-19T09:28:25.795Z,14.61
2019-05-19T09:30:58.126Z,14.68
2019-05-19T09:33:29.386Z,14.82
2019-05-19T09:36:00.639Z,14.62
2019-05-19T09:38:32.273Z,14.72
2019-05-19T09:41:03.651Z,14.81
2019-05-19T09:43:36.119Z,15.01
2019-05-19T09:46:07.972Z,15.07
2019-05-19T09:48:41.677Z,15.21
2019-05-19T09:51:13.670Z,15.35
2019-05-19T09:53:50.386Z,15.39
2019-05-19T09:56:22.303Z,15.52
2019-05-19T09:58:53.804Z,15.52
2019-05-19T10:01:30.968Z,15.63
2019-05-19T10:04:06.987Z,15.52
2019-05-19T10:06:38.330Z,15.78
2019-05-19T10:09:21.338Z,15.72
2019-05-19T10:12:06.516Z,15.82
2019-05-19T10:14:39.970Z,15.81
2019-05-19T10:17:11.468Z,15.88
2019-05-19T10:19:45.828Z,15.81
2019-05-19T10:22:17.239Z,15.69
2019-05-19T10:25:03.881Z,15.73
2019-05-19T10:27:22.650Z,15.73
2019-05-19T10:29:55.477Z,15.62
2019-05-19T10:32:27.922Z,15.63
2019-05-19T10:35:02.338Z,15.57
2019-05-19T10:37:34.343Z,15.76
2019-05-19T10:40:06.545Z,15.63
2019-05-19T10:42:38.094Z,15.38
2019-05-19T10:45:10.087Z,15.50
2019-05-19T10:47:41.558Z,15.65
2019-05-19T10:50:13.908Z,15.49
2019-05-19T10:52:47.518Z,15.43
2019-05-19T10:55:35.659Z,15.50
2019-05-19T10:57:58.022Z,15.51
2019-05-19T11:00:31.251Z,15.21
2019-05-19T11:03:24.627Z,15.08
2019-05-19T11:05:56.350Z,15.23
2019-05-19T11:08:30.861Z,15.28
2019-05-19T11:11:02.534Z,15.32
2019-05-19T11:13:35.279Z,15.51
2019-05-19T11:16:12.624Z,15.28
2019-05-19T11:18:44.230Z,15.37
2019-05-19T11:21:20.495Z,15.55
2019-05-19T11:23:52.232Z,15.57
2019-05-19T11:26:24.004Z,15.67
2019-05-19T11:28:55.938Z,15.72
2019-05-19T11:31:29.201Z,15.52
2019-05-19T11:34:04.159Z,15.55
2019-05-19T11:36:36.088Z,15.74
2019-05-19T11:39:18.593Z,15.56
2019-05-19T11:41:50.318Z,15.80
2019-05-19T11:44:25.411Z,15.78
2019-05-19T11:46:58.544Z,15.85
2019-05-19T11:49:30.131Z,15.82
2019-05-19T11:52:02.709Z,15.97
2019-05-19T11:54:34.099Z,15.96
2019-05-19T11:57:08.739Z,16.05
2019-05-19T11:59:40.438Z,16.12
2019-05-19T12:02:12.613Z,16.26
2019-05-19T13:26:21.863Z,16.30
2019-05-19T13:28:56.935Z,16.30
2019-05-19T13:31:28.627Z,16.26
2019-05-19T13:34:00.225Z,16.38
2019-05-19T13:36:32.664Z,16.55
2019-05-19T13:39:05.353Z,16.56
2019-05-19T13:41:36.749Z,16.58
2019-05-19T13:44:08.606Z,16.73
2019-05-19T13:46:44.638Z,16.65
2019-05-19T13:49:16.286Z,16.70
2019-05-19T13:51:47.852Z,16.78
2019-05-19T13:54:44.407Z,16.87
2019-05-19T13:57:16.261Z,16.75
2019-05-19T14:00:04.087Z,16.56
2019-05-19T14:02:39.687Z,16.50
2019-05-19T14:05:13.696Z,16.43
2019-05-19T14:07:45.879Z,16.39
2019-05-19T14:10:18.647Z,16.42
2019-05-19T14:12:51.638Z,16.38
2019-05-19T14:15:23.465Z,16.43
2019-05-19T14:17:55.071Z,16.48
2019-05-19T14:20:30.041Z,16.46
2019-05-19T14:23:01.559Z,16.60
2019-05-19T14:25:33.489Z,16.51
2019-05-19T14:28:05.150Z,16.58
2019-05-19T14:30:36.947Z,16.57
2019-05-19T14:33:08.284Z,16.74
2019-05-19T14:35:39.774Z,16.74
2019-05-19T14:38:20.856Z,16.68
2019-05-19T14:40:52.169Z,16.72
2019-05-19T14:43:27.295Z,16.80
2019-05-19T14:46:03.230Z,16.83
2019-05-19T14:48:34.633Z,16.66
2019-05-19T14:51:07.367Z,16.68
2019-05-19T14:53:38.750Z,16.85
2019-05-19T14:56:10.110Z,16.74
2019-05-19T14:58:42.877Z,16.90
2019-05-19T15:01:14.276Z,16.82
2019-05-19T15:03:50.263Z,16.78
2019-05-19T15:06:21.547Z,16.59
2019-05-19T15:08:52.855Z,16.52
2019-05-19T15:11:24.057Z,16.54
2019-05-19T15:13:56.368Z,16.60
2019-05-19T15:16:27.995Z,16.78
2019-05-19T15:18:59.805Z,16.67
2019-05-19T15:21:32.026Z,16.71
2019-05-19T15:24:03.882Z,16.73
2019-05-19T15:26:35.566Z,16.91
2019-05-19T15:29:06.992Z,17.01
2019-05-19T15:31:38.646Z,16.93
2019-05-19T15:34:11.589Z,16.93
2019-05-19T15:36:42.838Z,17.04
2019-05-19T15:39:14.723Z,17.15
2019-05-19T15:41:47.230Z,17.25
2019-05-19T15:44:19.477Z,17.23
2019-05-19T15:46:51.477Z,17.18
2019-05-19T15:49:23.606Z,16.99
2019-05-19T15:52:02.694Z,17.03
2019-05-19T15:54:29.864Z,17.09
2019-05-19T15:57:01.816Z,17.06
2019-05-19T15:59:45.450Z,17.13
2019-05-19T16:05:12.594Z,17.03
2019-05-19T16:07:49.550Z,17.08
2019-05-19T16:10:24.396Z,16.75
2019-05-19T16:12:57.632Z,17.01
2019-05-19T16:15:31.394Z,17.01
2019-05-19T16:18:03.950Z,16.79
2019-05-19T16:20:36.906Z,16.80
2019-05-19T16:23:29.643Z,16.92
2019-05-19T16:26:05.106Z,16.85
2019-05-19T16:28:38.859Z,16.79
2019-05-19T16:31:31.996Z,16.87
2019-05-19T16:34:03.477Z,16.84
2019-05-19T16:36:37.049Z,16.92
2019-05-19T16:39:10.980Z,16.82
2019-05-19T16:41:54.320Z,16.81
2019-05-19T16:44:26.474Z,16.84
2019-05-19T16:47:00.129Z,16.81
2019-05-19T16:49:37.143Z,16.78
2019-05-19T16:52:50.448Z,16.89
2019-05-19T16:55:29.906Z,16.97
2019-05-19T16:58:02.440Z,16.87
2019-05-19T17:00:36.272Z,16.87
2019-05-19T17:03:08.498Z,16.87
2019-05-19T17:05:50.841Z,16.87
2019-05-19T17:08:22.908Z,16.98
2019-05-19T17:11:00.545Z,16.91
2019-05-19T17:13:32.319Z,16.89
2019-05-19T17:16:05.797Z,16.95
2019-05-19T17:18:37.417Z,16.83
2019-05-19T17:21:09.391Z,16.90
2019-05-19T17:24:03.384Z,16.90
2019-05-19T17:26:36.548Z,16.93
2019-05-19T17:29:08.340Z,17.00
2019-05-19T17:31:39.874Z,17.11
2019-05-19T17:34:11.931Z,17.16
2019-05-19T17:36:44.146Z,17.09
2019-05-19T17:39:15.907Z,16.98
2019-05-19T17:41:52.919Z,17.02
2019-05-19T17:44:25.945Z,16.79
2019-05-19T17:47:05.445Z,16.78
2019-05-19T17:49:44.276Z,16.74
2019-05-19T17:52:50.734Z,16.40
2019-05-19T17:55:33.426Z,16.34
2019-05-19T17:58:05.837Z,16.36
2019-05-19T18:00:40.655Z,16.21
2019-05-19T18:03:12.861Z,15.97
2019-05-19T18:05:44.722Z,15.97
2019-05-19T18:08:16.868Z,15.83
2019-05-19T18:10:48.427Z,15.81
2019-05-19T18:13:19.812Z,15.78
2019-05-19T18:15:51.201Z,15.74
2019-05-19T18:18:22.709Z,15.66
2019-05-19T18:20:58.118Z,15.70
2019-05-19T18:23:30.270Z,15.65
2019-05-19T18:26:01.715Z,15.49
2019-05-19T18:28:33.576Z,15.47
2019-05-19T18:31:05.053Z,15.48
2019-05-19T18:36:25.190Z,15.41
2019-05-19T18:38:57.294Z,15.41
2019-05-19T18:41:28.985Z,15.30
2019-05-19T18:44:00.499Z,15.25
2019-05-19T18:46:31.971Z,15.29
2019-05-19T18:49:03.296Z,15.31
2019-05-19T18:51:34.669Z,15.32
2019-05-19T18:54:06.254Z,15.28
2019-05-19T18:56:37.891Z,15.27
2019-05-19T18:59:10.197Z,15.24
2019-05-19T19:01:41.816Z,15.20
2019-05-19T19:04:13.382Z,15.21
2019-05-19T19:06:44.816Z,15.23
2019-05-19T19:09:16.266Z,15.27
2019-05-19T19:11:48.634Z,15.23
2019-05-19T19:14:20.745Z,15.26
2019-05-19T19:16:52.708Z,15.21
2019-05-19T19:19:25.986Z,15.02
2019-05-19T19:21:58.270Z,15.04
2019-05-19T19:24:30.129Z,15.00
2019-05-19T19:27:01.697Z,14.89
2019-05-19T19:29:33.635Z,14.88
2019-05-19T19:32:05.240Z,14.76
2019-05-19T19:34:37.814Z,14.82
2019-05-19T19:37:09.572Z,14.76
2019-05-19T19:39:41.059Z,14.77
2019-05-19T19:42:14.012Z,14.81
2019-05-19T19:44:45.539Z,14.68
2019-05-19T19:47:17.013Z,14.73
2019-05-19T19:49:50.651Z,14.60
2019-05-19T19:52:24.636Z,14.68
2019-05-19T19:54:57.993Z,14.63
2019-05-19T19:57:29.946Z,14.61
2019-05-19T20:00:02.363Z,14.69
2019-05-19T20:02:34.931Z,14.61
2019-05-19T20:05:06.614Z,14.66
2019-05-19T20:07:38.522Z,14.64
2019-05-19T20:10:10.139Z,14.61
2019-05-19T20:12:41.764Z,14.62
2019-05-19T20:15:17.348Z,14.62
2019-05-19T20:17:51.396Z,14.59
2019-05-19T20:20:26.435Z,14.52
2019-05-19T20:22:58.223Z,14.58
2019-05-19T20:25:31.324Z,14.57
2019-05-19T20:28:03.770Z,14.56
2019-05-19T20:30:36.748Z,14.60
2019-05-19T20:33:09.421Z,14.47
2019-05-19T20:38:54.533Z,14.54
2019-05-19T20:41:27.433Z,14.55
2019-05-19T20:43:59.393Z,14.52
2019-05-19T20:46:36.542Z,14.48
2019-05-19T20:49:15.130Z,14.58
2019-05-19T20:54:23.079Z,14.50
2019-05-19T22:34:46.268Z,13.75
2019-05-19T22:37:17.775Z,13.73
2019-05-19T22:39:49.036Z,13.68
2019-05-19T22:42:20.619Z,13.67
2019-05-19T22:44:52.068Z,13.78
2019-05-19T22:48:09.384Z,13.82
2019-05-19T22:50:41.404Z,13.90
2019-05-19T22:53:12.843Z,13.80
2019-05-19T22:55:44.641Z,13.86
2019-05-19T22:58:16.301Z,13.76
2019-05-19T23:00:47.611Z,13.80
2019-05-19T23:03:21.064Z,13.69
2019-05-19T23:05:55.363Z,13.71
2019-05-19T23:08:28.949Z,13.71
2019-05-19T23:11:00.434Z,13.62
2019-05-19T23:13:31.753Z,13.58
2019-05-19T23:16:03.918Z,13.60
2019-05-19T23:18:35.231Z,13.42
2019-05-19T23:21:06.677Z,13.39
2019-05-19T23:23:38.239Z,13.32
2019-05-19T23:26:09.645Z,13.28
2019-05-19T23:28:41.417Z,13.31
2019-05-19T23:31:12.929Z,13.39
2019-05-19T23:33:44.275Z,13.56
2019-05-19T23:36:15.874Z,13.56
2019-05-19T23:38:47.593Z,13.60
2019-05-19T23:41:19.044Z,13.68
2019-05-19T23:43:50.317Z,13.73
2019-05-19T23:46:21.613Z,13.78
2019-05-19T23:48:52.962Z,13.85
2019-05-19T23:51:24.209Z,13.79
2019-05-19T23:53:55.585Z,13.77
2019-05-19T23:56:27.098Z,13.80
2019-05-19T23:59:01.395Z,13.96
